AirNav   Air Wisconsin pilot careers
 
 314 users online  

9M6 Kelly-Dumas Airport
Oak Grove, Louisiana, USA


FAA INFORMATION EFFECTIVE 04 JANUARY 2018

Location

FAA Identifier: 9M6
Lat/Long: 32-50-51.5300N / 091-24-14.6000W
32-50.858833N / 091-24.243333W
32.8476472 / -91.4040556
(estimated)
Elevation: 112 ft. / 34.1 m (surveyed)
Variation: 03E (1985)
From city: 1 mile SW of OAK GROVE, LA
Time zone: UTC -6 (UTC -5 during Daylight Saving Time)
Zip code: 71263

Airport Operations

Airport use: Open to the public
Control tower: no
ARTCC: MEMPHIS CENTER
FSS: DE RIDDER FLIGHT SERVICE STATION
NOTAMs facility: DRI (NOTAM-D service available)
Attendance: MON-FRI 0730-1700
Wind indicator: lighted
Segmented circle: yes
Lights: DUSK-DAWN. MIRL RY 18/36, REIL RYS 18 & 36 PRESET LOW INTST DUSK-DAWN; TO INCR INTST ACTVT - CTAF.
Beacon: white-green (lighted land airport)
Operates sunset to sunrise.

Airport Communications

CTAF: 122.9

Nearby radio navigation aids

VOR radial/distance  VOR name  Freq  Var
MLUr055/37.6MONROE VORTAC117.2003E

 
NDB name  Hdg/Dist  Freq  Var  ID
BASTROP074/24.832903EBQP -... --.- .--.

Airport Services

Fuel available: 100LL JET-A
FUEL AVBL 24 HRS WITH CREDIT CARD.
Parking: tiedowns
Airframe service: MAJOR
Powerplant service: MAJOR
Bottled oxygen: NONE
Bulk oxygen: NONE

Runway Information

Runway 18/36

Dimensions: 3799 x 60 ft. / 1158 x 18 m
Surface: asphalt, in good condition
Weight bearing capacity: 
Single wheel: 10.0
Runway edge lights: medium intensity
RUNWAY 18  RUNWAY 36
Latitude: 32-51.171500N32-50.546333N
Longitude: 091-24.218500W091-24.268167W
Elevation: 111.9 ft.109.8 ft.
Gradient: 0.1%0.1%
Traffic pattern: leftleft
Runway heading: 181 magnetic, 184 true001 magnetic, 004 true
Displaced threshold: 250 ft.no
Markings: nonprecision, in fair conditionnonprecision, in fair condition
Visual slope indicator: 2-light PAPI on left (3.75 degrees glide path)2-light PAPI on left (3.00 degrees glide path)
Runway end identifier lights: yesyes
Touchdown point: yes, no lightsyes, no lights
Obstructions: 64 ft. trees, 1422 ft. from runway, 137 ft. left of centerline, 19:1 slope to clear
APCH SLOPE 22:1 TO DSPLCD THLD.
79 ft. trees, 2225 ft. from runway, 279 ft. right of centerline, 25:1 slope to clear

Airport Ownership and Management from official FAA records

Ownership: Publicly-owned
Owner: WEST CARROLL PARISH
PO DRAWER 630
OAK GROVE, LA 71263
Phone 318-428-3390
Manager: CLARK STRANGE
11771 HWY 585
OAK GROVE, LA 71263
Phone 318-428-3129

Airport Operational Statistics

Aircraft based on the field: 13
Single engine airplanes: 13
    
Aircraft operations: avg 27/day *
50% transient general aviation
50% local general aviation
* for 12-month period ending 12 September 2017

Additional Remarks

GCO AVBL ON FREQ 135.075 THRU FLIGHT SERVICES.

Instrument Procedures

There are no published instrument procedures at 9M6.

Some nearby airports with instrument procedures:

KBQP - Morehouse Memorial Airport (25 nm W)
M79 - John H Hooks Jr Memorial Airport (29 nm SW)
M32 - Lake Village Municipal Airport (30 nm N)
KCRT - Z M Jack Stell Field Airport (31 nm NW)
KTVR - Vicksburg Tallulah Regional Airport (35 nm SE)
 
Loc | Ops | Rwys | IFR | FBO | Links
Com | Nav | Svcs | Stats | Notes


 
Area around 9M6 (Kelly-Dumas Airport)
 
Road maps at: MapQuest Bing Google
 
Aerial photo
WARNING: Photo may not be current or correct
Aerial photo of 9M6 (Kelly-Dumas Airport)
Photo by Dwayne Wilson
Photo taken 08-Apr-2017
looking north.

Do you have a better or more recent aerial photo of Kelly-Dumas Airport that you would like to share? If so, please send us your photo.

 
Sectional chart

 
Airport distance calculator
Flying to Kelly-Dumas Airport? Find the distance to fly.

From to 9M6

Sunrise and sunset
Times for 21-Jan-2018
 Local
(UTC-6)
 Zulu
(UTC)
Morning civil twilight06:4112:41
Sunrise07:0813:08
Sunset17:2623:26
Evening civil twilight17:5323:53

Current date and time
Zulu (UTC)  21-Jan-2018 10:50:39
Local (UTC-6)  21-Jan-2018 04:50:39
 
METAR
KBQP 
25nm W 
211035Z AUTO 18004KT 10SM OVC014 13/13 A3010 RMK AO2 T01280125
KTVR 
35nm SE 
210953Z AUTO 16007KT 10SM SCT060 BKN090 12/10 A3013 RMK AO2 SLP209 T01220100
KMLU 
37nm SW 
210953Z AUTO 16003KT 10SM OVC013 13/12 A3010 RMK AO2 SLP193 T01330117
KVKS 
44nm SE 
211035Z AUTO 15005KT 10SM FEW031 BKN060 BKN090 13/10 A3013 RMK A01
KGLH 
44nm NE 
210953Z AUTO 17010KT 10SM BKN060 OVC070 12/09 A3009 RMK AO2 SLP197 T01170089
TAF
KMLU 
37nm SW 
210724Z 2107/2206 17007KT P6SM OVC012 TEMPO 2107/2109 BKN025 OVC060 FM211000 16007KT 5SM BR OVC007 FM211600 17010KT P6SM OVC015 FM211900 17010KT P6SM OVC025 FM220000 17010KT P6SM OVC030
KGLH 
44nm NE 
210520Z 2106/2206 18010KT P6SM SCT040 FM210900 17009KT P6SM BKN025 FM211500 18017G22KT P6SM SCT030 BKN050
NOTAMs
Click for the latest NOTAMs
NOTAMs are issued by the DoD/FAA and will open in a separate window not controlled by AirNav.

 

 
 

FBO, Fuel Providers, and Aircraft Ground Support

  
 Business Name 
 
 Contact 
 
 Services / Description 
 
Fuel Prices
 
Comments
  
Kelly-Dumas Airport 318-428-3129
318-732-7110
[email]
Airport management, Aviation fuel, Aircraft parking (ramp or tiedown), Hangars, Aircraft maintenance, Pilots lounge / snooze room, Restrooms, Restaurant, Other business

More info about Kelly-Dumas Airport
Shell
100LL Jet A
SS $4.05 $3.25 
 Updated 16-Jan-2018
 
   1 read write
SS=Self service
Update Fuel Prices
 

Would you like to see your business listed on this page?

 If your business provides an interesting product or service to pilots, flight crews, aircraft, or users of the Kelly-Dumas Airport, you should consider listing it here.  To start the listing process, click on the button below
 
Add a business
 

Other Pages about Kelly-Dumas Airport

Update a link
 
Copyright © AirNav, LLC. All rights reserved. Privacy Policy  Contact